createdAt,value
2023-05-19T00:01:31.270Z,102743.13
2023-05-19T00:04:02.713Z,102743.31
2023-05-19T00:06:32.820Z,102739.34
2023-05-19T00:09:04.201Z,102740.66
2023-05-19T00:11:31.855Z,102736.69
2023-05-19T00:14:00.809Z,102737.72
2023-05-19T00:16:30.738Z,102744.19
2023-05-19T00:19:02.530Z,102742.88
2023-05-19T00:21:31.124Z,102743.06
2023-05-19T00:23:58.954Z,102743.22
2023-05-19T00:26:27.382Z,102743.72
2023-05-19T00:28:54.852Z,102741.41
2023-05-19T00:31:21.873Z,102742.41
2023-05-19T00:33:48.857Z,102744.22
2023-05-19T00:36:15.827Z,102742.06
2023-05-19T00:38:42.730Z,102737.06
2023-05-19T00:41:09.644Z,102736.91
2023-05-19T00:43:37.903Z,102731.41
2023-05-19T00:46:04.842Z,102738.41
2023-05-19T00:48:31.701Z,102744.38
2023-05-19T00:51:04.573Z,102736.72
2023-05-19T00:53:34.162Z,102739.69
2023-05-19T00:56:02.836Z,102738.50
2023-05-19T00:58:32.406Z,102731.50
2023-05-19T01:01:06.755Z,102731.38
2023-05-19T01:03:35.963Z,102733.00
2023-05-19T01:06:07.330Z,102733.66
2023-05-19T01:08:36.414Z,102736.00
2023-05-19T01:11:04.382Z,102737.34
2023-05-19T01:13:32.010Z,102737.06
2023-05-19T01:16:07.519Z,102735.06
2023-05-19T01:18:46.351Z,102730.75
2023-05-19T01:22:15.272Z,102736.53
2023-05-19T01:25:17.584Z,102739.69
2023-05-19T01:28:21.486Z,102742.00
2023-05-19T01:30:54.324Z,102739.00
2023-05-19T01:33:24.225Z,102736.84
2023-05-19T01:35:53.728Z,102734.00
2023-05-19T01:38:22.313Z,102735.69
2023-05-19T01:40:51.976Z,102721.38
2023-05-19T01:43:23.788Z,102738.06
2023-05-19T01:45:53.473Z,102732.03
2023-05-19T01:48:21.336Z,102732.38
2023-05-19T01:50:48.491Z,102726.53
2023-05-19T01:53:15.549Z,102729.38
2023-05-19T01:55:47.863Z,102727.03
2023-05-19T01:58:22.716Z,102727.34
2023-05-19T02:01:02.747Z,102725.53
2023-05-19T02:04:06.874Z,102729.66
2023-05-19T02:06:44.241Z,102728.31
2023-05-19T02:09:16.196Z,102732.28
2023-05-19T02:11:54.690Z,102729.28
2023-05-19T02:14:41.594Z,102736.56
2023-05-19T02:17:12.810Z,102737.25
2023-05-19T02:19:40.168Z,102730.94
2023-05-19T02:22:07.276Z,102737.25
2023-05-19T02:24:34.274Z,102742.06
2023-05-19T02:27:01.219Z,102737.53
2023-05-19T02:29:28.221Z,102733.19
2023-05-19T02:31:55.213Z,102734.16
2023-05-19T02:34:23.557Z,102733.31
2023-05-19T02:36:50.558Z,102726.19
2023-05-19T02:39:18.043Z,102728.31
2023-05-19T02:41:44.962Z,102729.66
2023-05-19T02:44:11.895Z,102734.28
2023-05-19T02:46:38.881Z,102729.81
2023-05-19T02:49:05.961Z,102726.31
2023-05-19T02:51:34.208Z,102723.50
2023-05-19T02:54:01.115Z,102721.50
2023-05-19T02:56:28.166Z,102722.34
2023-05-19T02:58:55.109Z,102716.84
2023-05-19T03:01:23.050Z,102715.47
2023-05-19T03:03:50.256Z,102724.13
2023-05-19T03:06:17.951Z,102727.50
2023-05-19T03:08:46.262Z,102728.97
2023-05-19T03:11:13.226Z,102719.50
2023-05-19T03:13:40.136Z,102718.50
2023-05-19T03:16:08.119Z,102720.50
2023-05-19T03:18:36.002Z,102717.84
2023-05-19T03:21:03.220Z,102722.31
2023-05-19T03:23:30.152Z,102712.53
2023-05-19T03:25:58.398Z,102719.06
2023-05-19T03:28:27.233Z,102712.44
2023-05-19T03:30:54.263Z,102714.63
2023-05-19T03:33:21.410Z,102715.97
2023-05-19T03:35:48.386Z,102717.63
2023-05-19T03:38:15.491Z,102717.94
2023-05-19T03:40:42.511Z,102717.94
2023-05-19T03:43:10.851Z,102721.25
2023-05-19T03:45:37.818Z,102723.91
2023-05-19T03:48:05.996Z,102728.56
2023-05-19T03:50:33.867Z,102727.59
2023-05-19T03:53:01.072Z,102719.28
2023-05-19T03:55:29.808Z,102722.31
2023-05-19T03:57:57.103Z,102717.66
2023-05-19T04:00:25.392Z,102725.34
2023-05-19T04:02:52.470Z,102717.91
2023-05-19T04:05:19.486Z,102725.03
2023-05-19T04:07:46.732Z,102726.03
2023-05-19T04:10:14.054Z,102725.03
2023-05-19T04:12:41.183Z,102732.00
2023-05-19T04:15:11.412Z,102729.22
2023-05-19T04:17:40.425Z,102731.50
2023-05-19T04:20:08.362Z,102727.59
2023-05-19T04:22:35.292Z,102729.59
2023-05-19T04:25:03.958Z,102728.44
2023-05-19T04:27:31.969Z,102729.13
2023-05-19T04:29:59.343Z,102731.66
2023-05-19T04:32:26.496Z,102730.66
2023-05-19T04:34:54.756Z,102732.34
2023-05-19T04:37:22.158Z,102732.00
2023-05-19T04:39:49.117Z,102725.72
2023-05-19T04:42:19.143Z,102725.53
2023-05-19T04:44:46.409Z,102722.75
2023-05-19T04:47:14.867Z,102719.09
2023-05-19T04:49:41.873Z,102728.06
2023-05-19T04:52:11.132Z,102726.03
2023-05-19T04:54:39.898Z,102727.03
2023-05-19T04:57:07.049Z,102720.88
2023-05-19T04:59:34.071Z,102731.34
2023-05-19T05:02:01.137Z,102731.50
2023-05-19T05:04:28.357Z,102735.84
2023-05-19T05:06:55.451Z,102741.28
2023-05-19T05:09:23.758Z,102730.66
2023-05-19T05:11:51.675Z,102738.63
2023-05-19T05:14:19.575Z,102733.19
2023-05-19T05:16:47.474Z,102738.00
2023-05-19T05:19:15.281Z,102737.38
2023-05-19T05:21:43.161Z,102748.34
2023-05-19T05:24:12.290Z,102733.09
2023-05-19T05:26:41.634Z,102739.91
2023-05-19T05:29:09.992Z,102744.06
2023-05-19T05:31:37.633Z,102743.75
2023-05-19T05:34:04.727Z,102741.78
2023-05-19T05:36:31.872Z,102739.25
2023-05-19T05:38:59.490Z,102732.47
2023-05-19T05:41:27.347Z,102733.44
2023-05-19T05:43:55.810Z,102734.75
2023-05-19T05:46:22.818Z,102737.41
2023-05-19T05:48:50.648Z,102720.84
2023-05-19T05:51:21.090Z,102730.38
2023-05-19T05:53:53.864Z,102731.75
2023-05-19T05:56:22.031Z,102733.91
2023-05-19T05:58:49.597Z,102737.28
2023-05-19T06:01:17.937Z,102731.81
2023-05-19T06:03:45.098Z,102734.34
2023-05-19T06:06:13.224Z,102743.16
2023-05-19T06:08:40.257Z,102736.53
2023-05-19T06:11:09.099Z,102734.56
2023-05-19T06:13:36.508Z,102732.41
2023-05-19T06:16:03.992Z,102731.41
2023-05-19T06:18:32.425Z,102739.22
2023-05-19T06:20:59.352Z,102726.94
2023-05-19T06:23:28.910Z,102733.25
2023-05-19T06:25:56.521Z,102730.59
2023-05-19T06:28:23.457Z,102727.94
2023-05-19T06:30:50.407Z,102727.78
2023-05-19T06:33:17.340Z,102730.44
2023-05-19T06:35:45.814Z,102727.44
2023-05-19T06:38:12.815Z,102727.72
2023-05-19T06:40:40.174Z,102724.38
2023-05-19T06:43:07.124Z,102721.03
2023-05-19T06:45:34.189Z,102726.34
2023-05-19T06:48:01.343Z,102722.09
2023-05-19T06:50:28.438Z,102726.88
2023-05-19T06:52:58.187Z,102723.81
2023-05-19T06:55:25.529Z,102720.94
2023-05-19T06:57:52.486Z,102726.25
2023-05-19T07:00:31.159Z,102731.88
2023-05-19T07:02:58.108Z,102732.66
2023-05-19T07:05:25.101Z,102720.59
2023-05-19T07:07:52.014Z,102732.22
2023-05-19T07:10:21.865Z,102738.50
2023-05-19T07:12:48.786Z,102729.78
2023-05-19T07:15:15.945Z,102734.06
2023-05-19T07:17:42.914Z,102734.81
2023-05-19T07:20:11.137Z,102728.69
2023-05-19T07:22:39.658Z,102728.25
2023-05-19T07:25:07.680Z,102729.66
2023-05-19T07:27:36.596Z,102725.53
2023-05-19T07:30:04.488Z,102729.16
2023-05-19T07:32:31.777Z,102720.03
2023-05-19T07:34:58.993Z,102724.47
2023-05-19T07:37:26.338Z,102715.53
2023-05-19T07:39:53.328Z,102719.13
2023-05-19T07:42:20.346Z,102723.69
2023-05-19T07:44:48.557Z,102719.91
2023-05-19T07:47:15.489Z,102717.13
2023-05-19T07:49:42.475Z,102719.31
2023-05-19T07:52:09.507Z,102728.88
2023-05-19T07:54:36.454Z,102723.09
2023-05-19T07:57:03.930Z,102721.06
2023-05-19T07:59:31.366Z,102720.88
2023-05-19T08:01:59.827Z,102711.53
2023-05-19T08:04:27.771Z,102710.88
2023-05-19T08:06:55.025Z,102702.03
2023-05-19T08:09:22.121Z,102711.13
2023-05-19T08:11:49.840Z,102709.00
2023-05-19T08:14:17.025Z,102709.38
2023-05-19T08:16:45.962Z,102703.84
2023-05-19T08:19:14.406Z,102701.59
2023-05-19T08:21:42.402Z,102695.06
2023-05-19T08:24:09.487Z,102697.50
2023-05-19T08:26:37.750Z,102698.41
2023-05-19T08:29:05.257Z,102699.03
2023-05-19T08:31:32.595Z,102692.16
2023-05-19T08:33:59.782Z,102696.19
2023-05-19T08:36:28.706Z,102692.09
2023-05-19T08:38:55.793Z,102696.06
2023-05-19T08:41:23.263Z,102697.09
2023-05-19T08:43:50.691Z,102697.84
2023-05-19T08:46:18.581Z,102690.69
2023-05-19T08:48:48.538Z,102683.41
2023-05-19T08:51:32.096Z,102691.13
2023-05-19T08:54:12.357Z,102671.22
2023-05-19T08:56:39.585Z,102676.41
2023-05-19T08:59:08.100Z,102662.66
2023-05-19T09:04:07.497Z,102667.34
2023-05-19T09:06:35.939Z,102656.97
2023-05-19T09:09:04.322Z,102663.75
2023-05-19T09:11:31.327Z,102655.53
2023-05-19T09:13:58.423Z,102653.19
2023-05-19T09:16:27.960Z,102649.97
2023-05-19T09:18:58.373Z,102648.72
2023-05-19T09:21:32.268Z,102651.09
2023-05-19T09:24:06.107Z,102647.25
2023-05-19T09:26:38.299Z,102646.69
2023-05-19T09:29:11.914Z,102642.09
2023-05-19T09:31:38.910Z,102643.88
2023-05-19T09:34:13.206Z,102644.03
2023-05-19T09:36:41.493Z,102644.19
2023-05-19T09:39:17.061Z,102632.94
2023-05-19T09:41:45.092Z,102636.88
2023-05-19T09:44:23.373Z,102627.25
2023-05-19T09:46:51.735Z,102621.72
2023-05-19T09:49:23.992Z,102622.88
2023-05-19T09:51:53.869Z,102624.50
2023-05-19T09:54:23.648Z,102614.75
2023-05-19T09:57:01.126Z,102619.66
2023-05-19T09:59:32.440Z,102618.06
2023-05-19T10:02:02.423Z,102622.72
2023-05-19T10:04:31.300Z,102616.53
2023-05-19T10:06:59.527Z,102611.16
2023-05-19T10:09:29.482Z,102607.16
2023-05-19T10:11:58.572Z,102603.47
2023-05-19T10:14:28.365Z,102602.09
2023-05-19T10:16:57.505Z,102594.47
2023-05-19T10:19:28.040Z,102583.41
2023-05-19T10:21:56.183Z,102588.56
2023-05-19T10:24:23.134Z,102592.63
2023-05-19T10:26:58.327Z,102602.75
2023-05-19T10:29:29.974Z,102592.28
2023-05-19T10:32:02.897Z,102588.94
2023-05-19T10:35:05.211Z,102586.75
2023-05-19T10:37:45.106Z,102591.84
2023-05-19T10:40:20.928Z,102592.66
2023-05-19T10:43:05.176Z,102588.19
2023-05-19T10:45:40.516Z,102581.88
2023-05-19T10:48:11.426Z,102581.69
2023-05-19T10:50:38.827Z,102577.38
2023-05-19T10:53:14.585Z,102581.22
2023-05-19T10:55:55.792Z,102576.34
2023-05-19T10:58:50.773Z,102574.81
2023-05-19T11:01:19.802Z,102571.41
2023-05-19T11:03:49.333Z,102565.25
2023-05-19T11:06:27.885Z,102564.03
2023-05-19T11:08:58.173Z,102563.16
2023-05-19T11:11:25.169Z,102560.13
2023-05-19T11:13:56.154Z,102554.19
2023-05-19T11:16:32.006Z,102553.09
2023-05-19T11:19:00.928Z,102560.25
2023-05-19T11:21:43.357Z,102563.59
2023-05-19T11:24:10.449Z,102565.69
2023-05-19T11:26:42.772Z,102566.13
2023-05-19T11:29:11.826Z,102575.34
2023-05-19T11:31:39.648Z,102565.72
2023-05-19T11:34:08.061Z,102563.06
2023-05-19T11:36:37.372Z,102564.31
2023-05-19T11:39:05.962Z,102567.41
2023-05-19T11:41:32.957Z,102562.78
2023-05-19T11:43:59.921Z,102564.69
2023-05-19T11:46:28.587Z,102563.03
2023-05-19T11:48:55.674Z,102557.50
2023-05-19T11:51:22.795Z,102551.25
2023-05-19T11:53:50.982Z,102548.88
2023-05-19T11:56:17.954Z,102541.16
2023-05-19T11:58:44.870Z,102555.47
2023-05-19T12:01:11.859Z,102547.38
2023-05-19T12:03:40.317Z,102544.63
2023-05-19T12:06:08.575Z,102548.13
2023-05-19T12:08:36.630Z,102546.25
2023-05-19T12:11:04.992Z,102544.91
2023-05-19T12:13:33.032Z,102546.22
2023-05-19T12:16:01.292Z,102534.81
2023-05-19T12:18:31.440Z,102542.69
2023-05-19T12:20:59.919Z,102535.66
2023-05-19T12:23:30.571Z,102534.34
2023-05-19T12:25:58.505Z,102539.22
2023-05-19T12:28:25.486Z,102527.47
2023-05-19T12:30:53.412Z,102522.16
2023-05-19T12:33:22.765Z,102521.28
2023-05-19T12:35:50.498Z,102520.84
2023-05-19T12:38:19.922Z,102515.44
2023-05-19T12:40:46.871Z,102521.91
2023-05-19T12:43:20.919Z,102518.38
2023-05-19T12:45:47.985Z,102509.94
2023-05-19T12:48:16.676Z,102514.81
2023-05-19T12:50:48.468Z,102507.75
2023-05-19T12:53:15.750Z,102499.44
2023-05-19T12:55:45.570Z,102494.69
2023-05-19T12:58:13.383Z,102500.56
2023-05-19T13:00:42.274Z,102507.94
2023-05-19T13:03:16.472Z,102500.44
2023-05-19T13:05:46.525Z,102499.50
2023-05-19T13:08:16.101Z,102507.22
2023-05-19T13:10:46.194Z,102506.03
2023-05-19T13:13:31.739Z,102508.81
2023-05-19T13:16:17.076Z,102506.19
2023-05-19T13:19:03.237Z,102497.13
2023-05-19T13:21:30.246Z,102501.63
2023-05-19T13:23:57.204Z,102501.50
2023-05-19T13:26:25.457Z,102502.47
2023-05-19T13:28:52.430Z,102502.22
2023-05-19T13:31:19.572Z,102489.91
2023-05-19T13:33:46.568Z,102491.47
2023-05-19T13:36:13.561Z,102477.69
2023-05-19T13:38:41.829Z,102468.44
2023-05-19T13:41:10.665Z,102466.72
2023-05-19T13:43:39.143Z,102468.44
2023-05-19T13:46:06.233Z,102466.16
2023-05-19T13:48:33.174Z,102470.28
2023-05-19T13:51:00.086Z,102478.72
2023-05-19T13:53:27.266Z,102478.19
2023-05-19T13:55:55.924Z,102468.78
2023-05-19T13:58:51.374Z,102479.00
2023-05-19T14:01:26.399Z,102475.22
2023-05-19T14:03:53.599Z,102470.81
2023-05-19T14:06:20.754Z,102467.69
2023-05-19T14:08:47.744Z,102460.97
2023-05-19T14:11:18.357Z,102461.59
2023-05-19T14:13:45.375Z,102459.53
2023-05-19T14:16:12.364Z,102454.28
2023-05-19T14:18:40.861Z,102448.69
2023-05-19T14:21:08.181Z,102455.75
2023-05-19T14:23:35.408Z,102459.28
2023-05-19T14:26:02.474Z,102460.47
2023-05-19T14:28:29.545Z,102461.28
2023-05-19T14:30:56.595Z,102452.75
2023-05-19T14:33:23.552Z,102454.47
2023-05-19T14:35:53.157Z,102455.22
2023-05-19T14:38:20.205Z,102456.94
2023-05-19T14:40:48.420Z,102461.41
2023-05-19T14:43:15.421Z,102459.38
2023-05-19T14:45:42.508Z,102457.75
2023-05-19T14:48:11.694Z,102465.41
2023-05-19T14:50:39.026Z,102463.53
2023-05-19T14:53:07.362Z,102456.28
2023-05-19T14:55:34.306Z,102456.53
2023-05-19T14:58:01.409Z,102456.75
2023-05-19T15:00:28.376Z,102454.41
2023-05-19T15:02:56.023Z,102445.59
2023-05-19T15:05:24.126Z,102456.53
2023-05-19T15:07:51.695Z,102448.91
2023-05-19T15:10:24.161Z,102460.97
2023-05-19T15:12:51.171Z,102454.13
2023-05-19T15:15:18.241Z,102451.84
2023-05-19T15:17:46.803Z,102458.31
2023-05-19T15:20:13.880Z,102442.22
2023-05-19T15:22:40.911Z,102447.25
2023-05-19T15:25:09.886Z,102444.97
2023-05-19T15:27:38.207Z,102451.34
2023-05-19T15:30:06.934Z,102443.88
2023-05-19T15:32:33.998Z,102446.66
2023-05-19T15:35:01.053Z,102440.81
2023-05-19T15:37:28.019Z,102448.75
2023-05-19T15:39:55.028Z,102441.84
2023-05-19T15:42:21.988Z,102437.16
2023-05-19T15:44:50.321Z,102441.25
2023-05-19T15:47:17.354Z,102433.56
2023-05-19T15:49:44.318Z,102441.81
2023-05-19T15:52:11.272Z,102436.91
2023-05-19T15:54:38.165Z,102436.28
2023-05-19T15:57:05.724Z,102443.72
2023-05-19T15:59:32.752Z,102441.53
2023-05-19T16:02:01.203Z,102434.97
2023-05-19T16:04:28.249Z,102441.97
2023-05-19T16:06:55.433Z,102438.22
2023-05-19T16:09:22.406Z,102426.81
2023-05-19T16:11:49.606Z,102432.75
2023-05-19T16:14:16.520Z,102425.88
2023-05-19T16:16:44.453Z,102431.50
2023-05-19T16:19:12.949Z,102429.31
2023-05-19T16:21:39.900Z,102419.41
2023-05-19T16:24:07.211Z,102425.59
2023-05-19T16:26:34.463Z,102416.13
2023-05-19T16:29:01.458Z,102427.16
2023-05-19T16:31:28.514Z,102420.84
2023-05-19T16:33:55.507Z,102419.38
2023-05-19T16:36:23.931Z,102422.16
2023-05-19T16:38:50.842Z,102421.34
2023-05-19T16:41:17.831Z,102424.34
2023-05-19T16:43:44.823Z,102424.69
2023-05-19T16:46:12.270Z,102424.72
2023-05-19T16:48:39.324Z,102422.31
2023-05-19T16:51:06.370Z,102418.44
2023-05-19T16:53:34.670Z,102412.16
2023-05-19T16:56:01.906Z,102415.69
2023-05-19T16:58:30.911Z,102428.34
2023-05-19T17:00:58.198Z,102430.00
2023-05-19T17:03:25.355Z,102423.78
2023-05-19T17:05:52.478Z,102431.28
2023-05-19T17:08:19.441Z,102424.66
2023-05-19T17:10:48.935Z,102429.75
2023-05-19T17:13:16.079Z,102424.47
2023-05-19T17:15:43.584Z,102422.47
2023-05-19T17:18:12.424Z,102421.66
2023-05-19T17:20:39.552Z,102414.63
2023-05-19T17:23:06.861Z,102423.31
2023-05-19T17:25:34.594Z,102419.53
2023-05-19T17:28:03.006Z,102411.25
2023-05-19T17:30:29.929Z,102422.38
2023-05-19T17:32:58.929Z,102420.28
2023-05-19T17:35:28.257Z,102421.47
2023-05-19T17:37:55.602Z,102415.25
2023-05-19T17:40:22.544Z,102418.63
2023-05-19T17:42:49.481Z,102422.84
2023-05-19T17:45:18.156Z,102428.13
2023-05-19T17:47:45.257Z,102426.56
2023-05-19T17:50:12.277Z,102433.47
2023-05-19T17:52:40.777Z,102432.06
2023-05-19T17:55:10.962Z,102435.19
2023-05-19T17:57:43.312Z,102442.56
2023-05-19T18:00:12.492Z,102434.19
2023-05-19T18:02:42.087Z,102440.13
2023-05-19T18:05:11.116Z,102442.72
2023-05-19T18:07:41.520Z,102442.91
2023-05-19T18:10:10.993Z,102441.75
2023-05-19T18:12:37.959Z,102442.28
2023-05-19T18:15:06.595Z,102436.59
2023-05-19T18:17:33.631Z,102441.22
2023-05-19T18:20:02.179Z,102439.63
2023-05-19T18:22:29.400Z,102443.00
2023-05-19T18:24:57.541Z,102441.19
2023-05-19T18:27:24.646Z,102454.91
2023-05-19T18:29:51.609Z,102448.97
2023-05-19T18:32:18.605Z,102444.47
2023-05-19T18:34:45.699Z,102449.91
2023-05-19T18:37:13.953Z,102452.44
2023-05-19T18:39:41.002Z,102455.41
2023-05-19T18:42:07.972Z,102462.25
2023-05-19T18:44:34.926Z,102461.25
2023-05-19T18:47:01.942Z,102461.28
2023-05-19T18:49:29.014Z,102462.16
2023-05-19T18:51:56.018Z,102464.66
2023-05-19T18:54:24.732Z,102456.81
2023-05-19T18:56:51.756Z,102460.53
2023-05-19T18:59:18.865Z,102463.44
2023-05-19T19:01:45.997Z,102463.88
2023-05-19T19:04:14.670Z,102465.94
2023-05-19T19:06:42.046Z,102468.03
2023-05-19T19:09:09.616Z,102470.13
2023-05-19T19:11:38.139Z,102471.75
2023-05-19T19:14:05.088Z,102475.50
2023-05-19T19:16:32.264Z,102475.50
2023-05-19T19:18:59.366Z,102475.91
2023-05-19T19:21:26.359Z,102473.44
2023-05-19T19:23:56.550Z,102479.84
2023-05-19T19:26:28.783Z,102498.66
2023-05-19T19:28:57.470Z,102488.75
2023-05-19T19:31:28.757Z,102500.50
2023-05-19T19:33:58.861Z,102499.06
2023-05-19T19:36:26.577Z,102500.34
2023-05-19T19:38:53.592Z,102506.75
2023-05-19T19:41:21.150Z,102511.53
2023-05-19T19:43:48.104Z,102508.19
2023-05-19T19:46:16.394Z,102508.66
2023-05-19T19:48:43.517Z,102510.91
2023-05-19T19:51:10.428Z,102507.84
2023-05-19T19:53:37.388Z,102511.97
2023-05-19T19:56:05.908Z,102513.22
2023-05-19T19:58:32.863Z,102516.56
2023-05-19T20:01:02.658Z,102522.38
2023-05-19T20:03:31.767Z,102527.75
2023-05-19T20:05:58.854Z,102530.41
2023-05-19T20:08:26.361Z,102521.38
2023-05-19T20:10:53.798Z,102535.19
2023-05-19T20:13:21.147Z,102528.59
2023-05-19T20:15:48.192Z,102531.06
2023-05-19T20:18:15.335Z,102535.19
2023-05-19T20:20:43.663Z,102530.66
2023-05-19T20:23:10.803Z,102532.53
2023-05-19T20:25:58.510Z,102537.28
2023-05-19T20:28:29.751Z,102532.31
2023-05-19T20:30:56.725Z,102526.97
2023-05-19T20:33:23.910Z,102529.03
2023-05-19T20:35:52.224Z,102536.47
2023-05-19T20:38:19.241Z,102535.22
2023-05-19T20:40:47.541Z,102534.38
2023-05-19T20:43:14.605Z,102542.44
2023-05-19T20:45:43.112Z,102534.41
2023-05-19T20:48:11.265Z,102534.81
2023-05-19T20:50:39.408Z,102542.22
2023-05-19T20:53:07.968Z,102539.78
2023-05-19T20:55:37.818Z,102537.88
2023-05-19T20:58:04.822Z,102537.28
2023-05-19T21:00:32.202Z,102543.69
2023-05-19T21:02:59.703Z,102539.34
2023-05-19T21:05:26.791Z,102548.22
2023-05-19T21:07:53.815Z,102536.88
2023-05-19T21:10:22.118Z,102543.47
2023-05-19T21:12:49.061Z,102536.88
2023-05-19T21:15:16.136Z,102540.31
2023-05-19T21:17:43.066Z,102539.28
2023-05-19T21:20:11.332Z,102537.22
2023-05-19T21:22:38.289Z,102538.88
2023-05-19T21:25:06.691Z,102536.38
2023-05-19T21:27:36.175Z,102537.41
2023-05-19T21:30:03.592Z,102538.44
2023-05-19T21:32:32.059Z,102541.94
2023-05-19T21:34:59.889Z,102540.28
2023-05-19T21:37:26.900Z,102539.66
2023-05-19T21:39:53.869Z,102544.63
2023-05-19T21:42:20.790Z,102547.91
2023-05-19T21:44:49.085Z,102542.50
2023-05-19T21:47:16.286Z,102547.25
2023-05-19T21:49:43.453Z,102547.25
2023-05-19T21:52:10.787Z,102551.78
2023-05-19T21:54:37.843Z,102556.50
2023-05-19T21:57:05.477Z,102555.72
2023-05-19T21:59:32.421Z,102558.78
2023-05-19T22:02:00.726Z,102556.50
2023-05-19T22:04:31.281Z,102557.50
2023-05-19T22:06:58.645Z,102565.13
2023-05-19T22:09:25.674Z,102563.47
2023-05-19T22:11:52.570Z,102558.72
2023-05-19T22:14:19.491Z,102552.75
2023-05-19T22:16:47.358Z,102551.88
2023-05-19T22:19:16.072Z,102546.91
2023-05-19T22:24:09.866Z,102550.41
2023-05-19T22:26:36.936Z,102554.06
2023-05-19T22:29:03.868Z,102554.72
2023-05-19T22:31:30.884Z,102551.38
2023-05-19T22:33:57.863Z,102557.78
2023-05-19T22:36:26.170Z,102553.44
2023-05-19T22:38:53.176Z,102559.63
2023-05-19T22:41:20.105Z,102567.88
2023-05-19T22:43:47.001Z,102557.16
2023-05-19T22:46:14.044Z,102553.81
2023-05-19T22:48:41.149Z,102561.22
2023-05-19T22:51:08.128Z,102558.97
2023-05-19T22:53:36.356Z,102551.34
2023-05-19T22:56:03.444Z,102550.72
2023-05-19T22:58:30.418Z,102561.81
2023-05-19T23:00:57.470Z,102559.50
2023-05-19T23:03:24.390Z,102563.41
2023-05-19T23:05:51.313Z,102559.09
2023-05-19T23:08:18.254Z,102562.78
2023-05-19T23:10:46.497Z,102556.81
2023-05-19T23:13:15.288Z,102559.88
2023-05-19T23:15:42.270Z,102561.09
2023-05-19T23:18:09.289Z,102564.81
2023-05-19T23:20:36.384Z,102566.84
2023-05-19T23:23:03.385Z,102567.22
2023-05-19T23:25:30.330Z,102567.00
2023-05-19T23:27:58.741Z,102570.88
2023-05-19T23:30:25.747Z,102563.81
2023-05-19T23:32:52.962Z,102559.25
2023-05-19T23:35:20.613Z,102556.34
2023-05-19T23:37:47.818Z,102564.75
2023-05-19T23:40:15.456Z,102568.84
2023-05-19T23:42:44.204Z,102568.59
2023-05-19T23:45:12.798Z,102576.31
2023-05-19T23:47:39.757Z,102570.72
2023-05-19T23:50:07.542Z,102574.81
2023-05-19T23:52:34.521Z,102562.19
2023-05-19T23:55:03.185Z,102566.28
2023-05-19T23:57:30.210Z,102562.97
2023-05-19T23:59:57.175Z,102568.91
